M I D A S
Marine Information and Data Acquisition System
Tripno 474 of the Zeeleeuw from 2002-04-25 11:45:00 to 2002-04-25 15:45:00
Back to CruiseResearch ActivitiesStationsMapUnderway DataData graphs

EquipmentUnitsComment
TimeDGPSUTC
LatitudeDGPSDM.mWGS84
LongitudeDGPSDM.mWGS84
HeadingGyrodeg 
SOGDGPSknotsSpeed over ground
COGDGPSdegCourse over ground
DepthEcho soundermeters200 kHz
Missing or incorrect values are displayed as -999
Navigation data collected by the RV Zeeleeuw from 2002-04-25 11:45:00 to 2002-04-25 15:45:00
Time Latitude Longitude Heading SOG COG Depth
2002-04-25 11:46:07 51°13.687 2°55.883 98.3 2.1 275.8 -999
2002-04-25 11:47:07 51°13.69 2°55.803 95.7 3 274.4 -999
2002-04-25 11:48:06 51°13.692 2°55.753 84.5 0.4 36.4 16.3
2002-04-25 11:49:07 51°13.698 2°55.77 37.5 1.3 208.5 16.4
2002-04-25 11:50:07 51°13.708 2°55.758 349.3 3.8 352.1 16.4
2002-04-25 11:51:06 51°13.779 2°55.676 320.8 6.1 318.7 13
2002-04-25 11:52:06 51°13.875 2°55.595 340.7 6.8 337.3 12.8
2002-04-25 11:53:06 51°13.983 2°55.522 338.2 7.1 336.6 13.1
2002-04-25 11:54:06 51°14.091 2°55.444 338.3 7.2 335.5 13.9
2002-04-25 11:55:06 51°14.197 2°55.36 330 7.1 328.1 13.4
2002-04-25 11:56:06 51°14.289 2°55.221 313.5 8.1 311.5 13.7
2002-04-25 11:57:06 51°14.37 2°55.041 305 8.4 303.1 13.2
2002-04-25 11:58:06 51°14.438 2°54.812 276.5 10.7 279.4 12.8
2002-04-25 11:59:06 51°14.452 2°54.519 258.3 10.9 261.7 12.7
2002-04-25 12:00:06 51°14.366 2°54.264 242.2 11.1 240.4 12.1
2002-04-25 12:01:06 51°14.262 2°54.024 237.3 11.1 235.7 12
2002-04-25 12:02:06 51°14.16 2°53.78 238.2 11 236.2 12
2002-04-25 12:03:06 51°14.052 2°53.525 237.7 11.9 235.7 12.1
2002-04-25 12:04:05 51°13.943 2°53.265 238.7 12 236.5 12.3
2002-04-25 12:05:06 51°13.841 2°52.984 241.2 12 240 12.5
2002-04-25 12:06:06 51°13.739 2°52.712 241 12 239.6 12.8
2002-04-25 12:07:06 51°13.639 2°52.438 241 12 239.4 12.9
2002-04-25 12:08:06 51°13.537 2°52.162 240.7 12.1 239.3 13.1
2002-04-25 12:09:06 51°13.435 2°51.887 241.3 12 239.7 13.1
2002-04-25 12:10:06 51°13.332 2°51.613 240.5 12 239.1 13
2002-04-25 12:11:06 51°13.229 2°51.342 240.8 12 239 12.9
2002-04-25 12:12:06 51°13.127 2°51.069 240.8 12 239.3 13.1
2002-04-25 12:13:06 51°13.026 2°50.793 240.8 12.2 239.2 13
2002-04-25 12:14:06 51°12.922 2°50.515 241.2 12.2 239.1 13.1
2002-04-25 12:15:05 51°12.819 2°50.244 241 12.2 239.1 13.1
2002-04-25 12:16:06 51°12.717 2°49.958 243 12.1 241.1 13.1
2002-04-25 12:17:06 51°12.619 2°49.674 243 12.2 241.3 13.2
2002-04-25 12:18:06 51°12.52 2°49.389 242.5 12.3 241.3 13.2
2002-04-25 12:19:06 51°12.422 2°49.108 243 12.1 241 13.2
2002-04-25 12:20:06 51°12.324 2°48.825 243.2 12.2 241.5 13.2
2002-04-25 12:21:06 51°12.227 2°48.542 243 12.2 241.7 13.1
2002-04-25 12:22:06 51°12.13 2°48.259 242.7 12.2 241.4 13.1
2002-04-25 12:23:06 51°12.048 2°47.96 249.5 12.4 248.4 13.5
2002-04-25 12:24:06 51°11.968 2°47.661 248 12.2 247.1 13.6
2002-04-25 12:25:06 51°11.888 2°47.365 247.8 12.2 246.4 13.6
2002-04-25 12:26:06 51°11.807 2°47.069 247.8 12.2 246.7 13.7
2002-04-25 12:27:06 51°11.727 2°46.773 247.8 12.2 246.6 13.8
2002-04-25 12:28:06 51°11.647 2°46.475 247.8 12.2 246.8 14
2002-04-25 12:29:06 51°11.565 2°46.178 247.8 12.2 246.3 14
2002-04-25 12:30:06 51°11.485 2°45.882 247.8 12.1 246.4 13.9
2002-04-25 12:31:06 51°11.404 2°45.588 248 12.2 246 13.9
2002-04-25 12:32:06 51°11.32 2°45.291 247.8 12.3 245.7 13.8
2002-04-25 12:33:06 51°11.259 2°44.986 271.7 12.1 271.2 13.8
2002-04-25 12:34:06 51°11.275 2°44.658 275.8 12.5 274.9 14.5
2002-04-25 12:35:06 51°11.293 2°44.327 273.5 12.5 274.5 14.9
2002-04-25 12:36:06 51°11.348 2°44.009 288 12.5 288.3 15.1
2002-04-25 12:37:06 51°11.418 2°43.695 287.2 12.6 287.8 15
2002-04-25 12:38:06 51°11.484 2°43.379 289.2 12.6 290 14.2
2002-04-25 12:39:05 51°11.534 2°43.065 292 12.5 291.3 13.4
2002-04-25 12:40:05 51°11.683 2°42.832 303.5 12.6 306.8 11.8
2002-04-25 12:41:06 51°11.731 2°42.611 270 5.4 277.7 12.1
2002-04-25 12:42:06 51°11.74 2°42.595 241.7 1.1 54.7 12.3
2002-04-25 12:43:07 51°11.749 2°42.622 220.8 1.1 63.3 -999
2002-04-25 12:44:06 51°11.755 2°42.647 208 1.1 73.3 -999
2002-04-25 12:45:06 51°11.759 2°42.675 202.8 1.1 78.6 12
2002-04-25 12:46:06 51°11.762 2°42.703 200 1.1 81.2 11.9
2002-04-25 12:47:06 51°11.765 2°42.732 198.7 1.1 83.5 11.8
2002-04-25 12:48:06 51°11.766 2°42.76 203 1 83.2 11.8
2002-04-25 12:49:06 51°11.769 2°42.786 208.8 1 81.5 11.7
2002-04-25 12:50:06 51°11.772 2°42.809 214.8 0.9 80.2 11.7
2002-04-25 12:51:06 51°11.775 2°42.832 220.3 0.9 78.3 11.7
2002-04-25 12:52:05 51°11.778 2°42.854 223 0.9 77.8 11.6
2002-04-25 12:53:05 51°11.781 2°42.876 224.3 0.8 77.4 11.5
2002-04-25 12:54:06 51°11.784 2°42.897 225.2 0.8 78.1 11.6
2002-04-25 12:55:06 51°11.787 2°42.918 227.2 0.8 77.8 11.8
2002-04-25 12:56:06 51°11.79 2°42.939 229.3 0.8 75.2 11.4
2002-04-25 12:57:06 51°11.793 2°42.96 231.8 0.7 81.2 11.4
2002-04-25 12:58:06 51°11.793 2°42.967 239 0.3 202 11.5
2002-04-25 12:59:06 51°11.782 2°42.926 257.2 2.5 258.8 11.6
2002-04-25 13:00:06 51°11.789 2°42.843 282.3 3.6 289.8 11.4
2002-04-25 13:01:06 51°11.824 2°42.756 300.2 4.1 308.8 11.8
2002-04-25 13:02:06 51°11.871 2°42.679 303.7 3.9 314.7 12.4
2002-04-25 13:03:06 51°11.911 2°42.612 290.7 2.9 306.1 13
2002-04-25 13:04:06 51°11.915 2°42.563 243.2 1.7 247 13.4
2002-04-25 13:05:06 51°11.883 2°42.525 210.3 2.8 201.5 13.3
2002-04-25 13:06:06 51°11.836 2°42.513 204 2.8 190.2 12.8
2002-04-25 13:07:06 51°11.798 2°42.488 215.5 2.4 203.3 12.5
2002-04-25 13:08:06 51°11.76 2°42.471 203.8 2.4 189.7 12.2
2002-04-25 13:09:06 51°11.72 2°42.466 199.8 2.4 184.1 12
2002-04-25 13:10:06 51°11.68 2°42.458 206.7 2.4 190.7 11.9
2002-04-25 13:11:06 51°11.643 2°42.443 212.7 2.3 197.9 11.9
2002-04-25 13:12:06 51°11.608 2°42.419 219 2.3 207.6 12
2002-04-25 13:13:06 51°11.577 2°42.387 226.5 2.2 216.8 12.3
2002-04-25 13:14:06 51°11.549 2°42.349 227.7 2.2 219.9 12.4
2002-04-25 13:15:06 51°11.518 2°42.315 220.8 2.3 212.5 12.8
2002-04-25 13:16:06 51°11.483 2°42.286 214 2.4 203.9 13
2002-04-25 13:17:06 51°11.444 2°42.266 209.3 2.5 197.5 13.2
2002-04-25 13:18:06 51°11.406 2°42.242 215.7 2.5 204.4 13.3
2002-04-25 13:19:05 51°11.372 2°42.212 224 2.3 213.6 13.6
2002-04-25 13:20:06 51°11.343 2°42.169 235.3 2.3 229.2 13.7
2002-04-25 13:21:06 51°11.321 2°42.12 237.3 2.3 233.8 13.8
2002-04-25 13:22:06 51°11.293 2°42.078 223 2.4 217 13.6
2002-04-25 13:23:06 51°11.256 2°42.053 207.2 2.5 194.4 13.7
2002-04-25 13:24:06 51°11.218 2°42.031 220 2.3 206.3 13.7
2002-04-25 13:25:06 51°11.183 2°42.004 221 2.4 206.8 13.6
2002-04-25 13:26:06 51°11.15 2°41.973 228 2.2 215.6 13.7
2002-04-25 13:27:06 51°11.122 2°41.934 230.5 2.2 221.9 13.7
2002-04-25 13:28:06 51°11.095 2°41.894 230 2.2 222.4 13.8
2002-04-25 13:29:06 51°11.066 2°41.857 226.3 2.3 217.5 13.9
2002-04-25 13:30:06 51°11.035 2°41.821 224 2.3 214 13.8
2002-04-25 13:31:06 51°11.003 2°41.786 225.5 2.4 215.8 13.9
2002-04-25 13:32:06 51°10.973 2°41.747 231.7 2.3 222.5 14
2002-04-25 13:33:06 51°10.948 2°41.705 242 2.2 235.6 14
2002-04-25 13:34:06 51°10.932 2°41.656 247 2.1 243.2 14
2002-04-25 13:35:06 51°10.915 2°41.605 244 2.2 240.1 14
2002-04-25 13:36:06 51°10.894 2°41.558 237.5 2.2 232.7 13.9
2002-04-25 13:37:06 51°10.873 2°41.51 243.2 2.2 239.6 14
2002-04-25 13:38:06 51°10.86 2°41.462 253.8 1.6 254 13.9
2002-04-25 13:39:06 51°10.858 2°41.428 262.3 1.2 268.4 13.9
2002-04-25 13:40:06 51°10.859 2°41.398 270.3 1.5 278.2 13.8
2002-04-25 13:41:06 51°10.873 2°41.34 292.7 2.7 299.4 13.9
2002-04-25 13:42:06 51°10.899 2°41.294 306 2.2 320 13.8
2002-04-25 13:43:06 51°10.926 2°41.264 313 2 330.3 13.8
2002-04-25 13:44:06 51°10.958 2°41.247 330.2 1.9 353.7 13.7
2002-04-25 13:45:06 51°10.986 2°41.253 344.5 1.6 14.8 13.8
2002-04-25 13:46:06 51°11.009 2°41.269 357.3 1.5 30 13.7
2002-04-25 13:47:06 51°11.028 2°41.292 10 1.4 39.3 13.7
2002-04-25 13:48:06 51°11.045 2°41.317 18 1.4 45.1 13.6
2002-04-25 13:49:06 51°11.061 2°41.344 22.3 1.4 48.3 13.6
2002-04-25 13:50:06 51°11.076 2°41.37 26.3 1.3 50.7 13.5
2002-04-25 13:51:06 51°11.089 2°41.397 30.2 1.3 51 13.4
2002-04-25 13:52:06 51°11.102 2°41.425 32.5 1.3 52.4 13.5
2002-04-25 13:53:06 51°11.115 2°41.451 33.5 1.3 51.9 13.5
2002-04-25 13:54:06 51°11.128 2°41.476 34.2 1.2 50.6 13.4
2002-04-25 13:55:06 51°11.14 2°41.501 36.7 1.2 51 13.3
2002-04-25 13:56:06 51°11.152 2°41.526 39.7 1.2 52.9 13.3
2002-04-25 13:57:06 51°11.164 2°41.551 41.8 1.2 57 13.3
2002-04-25 13:58:06 51°11.175 2°41.576 43.3 1.2 54.5 13.3
2002-04-25 13:59:06 51°11.192 2°41.619 73.2 2.5 66.6 13.2
2002-04-25 14:00:06 51°11.181 2°41.697 140.8 3.4 129 13.1
2002-04-25 14:01:06 51°11.134 2°41.717 198 2.4 184.8 13
2002-04-25 14:02:06 51°11.104 2°41.709 208.7 1.4 192.1 13.1
2002-04-25 14:03:06 51°11.085 2°41.702 216.5 1 197.8 13.1
2002-04-25 14:04:06 51°11.072 2°41.695 222.3 0.8 195.8 13.2
2002-04-25 14:05:06 51°11.059 2°41.68 241.8 1.6 236 13.2
2002-04-25 14:06:06 51°11.062 2°41.624 298.2 2.4 300.5 12.9
2002-04-25 14:07:05 51°11.104 2°41.597 2.8 3.8 3.6 13.1
2002-04-25 14:08:06 51°11.15 2°41.68 85.3 4.6 76.7 13
2002-04-25 14:09:06 51°11.117 2°41.768 158.7 3.3 147.2 13
2002-04-25 14:10:05 51°11.081 2°41.795 175.3 2 159.7 13.1
2002-04-25 14:11:06 51°11.055 2°41.806 189 1.4 168.4 13.1
2002-04-25 14:12:06 51°11.035 2°41.809 201 1 177.4 13.2
2002-04-25 14:13:06 51°11.021 2°41.808 212.2 0.7 183 13.2
2002-04-25 14:14:06 51°11.011 2°41.807 220.7 0.5 186.8 13.2
2002-04-25 14:15:05 51°11.004 2°41.804 227.8 0.4 191.8 13.3
2002-04-25 14:16:06 51°10.977 2°41.762 224 4.6 221.4 13.1
2002-04-25 14:17:06 51°10.883 2°41.848 109.8 9 107.1 13.3
2002-04-25 14:18:06 51°10.86 2°42.165 99.7 13.1 96.7 13
2002-04-25 14:19:06 51°10.87 2°42.515 86.2 13.4 83.5 12.9
2002-04-25 14:20:06 51°10.918 2°42.865 78 13.5 75.6 12.8
2002-04-25 14:21:06 51°10.97 2°43.214 79.8 13.6 77 12.7
2002-04-25 14:22:06 51°11.061 2°43.536 66.3 13.5 63.8 12.8
2002-04-25 14:23:06 51°11.132 2°43.874 76.8 13.4 74.3 12.6
2002-04-25 14:24:05 51°11.196 2°44.207 74.7 13.4 71.3 12.7
2002-04-25 14:25:06 51°11.264 2°44.55 75 13.3 72.7 12.6
2002-04-25 14:26:05 51°11.33 2°44.881 74.8 13.3 72.8 12.5
2002-04-25 14:27:06 51°11.397 2°45.224 74.7 13.4 72.3 12.4
2002-04-25 14:28:05 51°11.466 2°45.554 73 13.3 70 12.4
2002-04-25 14:29:06 51°11.545 2°45.891 72.8 13.4 69.6 12.3
2002-04-25 14:30:06 51°11.622 2°46.223 72.3 13.3 69.1 12.3
2002-04-25 14:31:06 51°11.696 2°46.56 72.5 13.3 69.4 12.1
2002-04-25 14:32:05 51°11.772 2°46.881 72 13.3 69.3 11.8
2002-04-25 14:33:06 51°11.848 2°47.218 72.8 13.3 69.9 11.4
2002-04-25 14:34:06 51°11.921 2°47.55 72.5 13.2 70.1 11
2002-04-25 14:35:06 51°12.008 2°47.87 67.8 13.2 64.8 11.1
2002-04-25 14:36:06 51°12.098 2°48.19 69 13.3 66.2 11
2002-04-25 14:37:06 51°12.187 2°48.511 67.5 13.2 65.2 10.8
2002-04-25 14:38:06 51°12.293 2°48.816 64.8 13.2 62 10.8
2002-04-25 14:39:06 51°12.395 2°49.125 65 13.1 62.4 10.6
2002-04-25 14:40:05 51°12.496 2°49.428 64.3 13.2 61.8 10.6
2002-04-25 14:41:06 51°12.601 2°49.739 64.8 13.1 61.6 10.4
2002-04-25 14:42:06 51°12.704 2°50.049 62.8 13 60.2 10.4
2002-04-25 14:43:06 51°12.813 2°50.347 63.2 13 60.7 10.4
2002-04-25 14:44:06 51°12.922 2°50.643 63.3 13 60.3 10.4
2002-04-25 14:45:06 51°13.028 2°50.946 62.7 13 59.9 10.3
2002-04-25 14:46:05 51°13.135 2°51.241 62.5 13 60.6 10.3
2002-04-25 14:47:05 51°13.239 2°51.543 62.7 13 61 10.1
2002-04-25 14:48:06 51°13.347 2°51.849 62.5 13 60.3 10.2
2002-04-25 14:49:05 51°13.469 2°52.126 55.2 13 52.8 10.2
2002-04-25 14:50:06 51°13.595 2°52.415 58.7 13 55.8 10.1
2002-04-25 14:51:06 51°13.718 2°52.701 58.5 13 56.5 10.1
2002-04-25 14:52:06 51°13.833 2°52.971 59.3 10.6 56.7 10
2002-04-25 14:53:06 51°13.929 2°53.148 49.8 8.3 47.2 10
2002-04-25 14:54:06 51°14.02 2°53.302 48.7 7.9 46.1 10
2002-04-25 14:55:06 51°14.109 2°53.455 49.8 7.8 46.9 10
2002-04-25 14:56:06 51°14.195 2°53.602 53 7.2 49.3 10
2002-04-25 14:57:05 51°14.252 2°53.753 63.3 6.6 61.6 9.8
2002-04-25 14:58:06 51°14.308 2°53.901 62 6.1 59.3 9.8
2002-04-25 14:59:06 51°14.349 2°54.011 64.2 4.1 61.9 9.8
2002-04-25 15:00:06 51°14.372 2°54.1 73 3.3 71.8 9.8
2002-04-25 15:01:06 51°14.385 2°54.181 80.5 3 81.1 9.8
2002-04-25 15:02:06 51°14.391 2°54.257 81.2 2.8 82.4 9.8
2002-04-25 15:03:06 51°14.4 2°54.327 74.5 2.7 74.4 9.8
2002-04-25 15:04:06 51°14.411 2°54.405 79.7 3.4 79.8 9.9
2002-04-25 15:05:06 51°14.417 2°54.504 85.3 4 87.4 10.1
2002-04-25 15:06:06 51°14.417 2°54.624 86.3 5.5 88 10.2
2002-04-25 15:07:06 51°14.41 2°54.785 94.3 6.4 97.5 10.1
2002-04-25 15:08:06 51°14.381 2°54.944 106.5 5.8 110.4 9.9
2002-04-25 15:09:06 51°14.345 2°55.08 118.3 5.5 117.9 10.3
2002-04-25 15:10:06 51°14.305 2°55.183 126 3.9 123.7 10.8
2002-04-25 15:11:06 51°14.269 2°55.252 137 3.1 134.3 10.8
2002-04-25 15:12:05 51°14.236 2°55.299 140 2.5 139 10.9
2002-04-25 15:13:05 51°14.207 2°55.338 146.8 2.1 143.7 11
2002-04-25 15:14:06 51°14.145 2°55.398 153.5 5.8 151.1 10.9
2002-04-25 15:15:06 51°14.052 2°55.474 156.2 6.3 153.9 10.8
2002-04-25 15:16:06 51°13.963 2°55.54 158.7 5.4 155.1 10
2002-04-25 15:17:06 51°13.891 2°55.591 155.2 4.4 153 10.1
2002-04-25 15:18:06 51°13.833 2°55.643 153.2 3.8 150.4 10.3
2002-04-25 15:19:06 51°13.781 2°55.689 150.5 3.4 148.6 9.9
2002-04-25 15:20:06 51°13.742 2°55.737 137.5 2.8 137 10
2002-04-25 15:21:06 51°13.717 2°55.791 121.5 2.4 119.8 9.9
2002-04-25 15:22:06 51°13.701 2°55.845 112.7 2.2 110.6 9
2002-04-25 15:23:06 51°13.691 2°55.893 112.7 1.2 109.5 7.9
2002-04-25 15:24:06 51°13.689 2°55.904 123.2 0.2 82.5 7.8